Time;durP1;ratioP1;P1;durP2;ratioP2;P2;SDS_P1;SDS_P2;PMS_P1;PMS_P2;Temp;Humidity;BMP_temperature;BMP_pressure;BME280_temperature;BME280_humidity;BME280_pressure;Samples;Min_cycle;Max_cycle;Signal;HPM_P1;HPM_P2
2023/09/27 00:02:35;;;;;;;17.77;10.77;;;24.20;89.80;;;;;;7674632;22;83275;-58
2023/09/27 00:05:36;;;;;;;15.43;11.25;;;24.20;89.60;;;;;;7674189;22;83689;-58
2023/09/27 00:08:37;;;;;;;12.18;10.02;;;24.20;90.00;;;;;;7674692;22;83017;-59
2023/09/27 00:11:37;;;;;;;13.25;10.50;;;24.20;89.20;;;;;;7674796;22;84117;-58
2023/09/27 00:14:38;;;;;;;13.55;10.52;;;24.20;89.20;;;;;;7674368;22;82831;-57
2023/09/27 00:17:38;;;;;;;15.23;11.68;;;24.20;89.10;;;;;;7674454;22;83724;-57
2023/09/27 00:20:38;;;;;;;13.43;10.05;;;24.20;89.20;;;;;;7673167;22;83177;-58
2023/09/27 00:23:39;;;;;;;14.85;11.13;;;24.20;88.80;;;;;;7673947;22;87694;-58
2023/09/27 00:26:39;;;;;;;15.00;11.75;;;24.20;88.80;;;;;;7674576;22;83131;-60
2023/09/27 00:29:40;;;;;;;13.05;10.57;;;24.20;88.30;;;;;;7675029;22;83847;-58
2023/09/27 00:32:41;;;;;;;13.63;10.07;;;24.20;88.70;;;;;;7674337;22;82923;-61
2023/09/27 00:35:41;;;;;;;14.77;10.65;;;24.20;88.20;;;;;;7674681;22;83086;-61
2023/09/27 00:38:42;;;;;;;14.20;10.98;;;24.20;88.10;;;;;;7674486;22;83268;-61
2023/09/27 00:41:42;;;;;;;11.85;10.07;;;24.20;88.20;;;;;;7674953;22;83511;-61
2023/09/27 00:44:44;;;;;;;10.95;9.05;;;24.10;88.10;;;;;;7674828;22;82989;-61
2023/09/27 00:47:44;;;;;;;11.32;9.20;;;24.10;88.70;;;;;;7679366;22;82736;-64
2023/09/27 00:50:45;;;;;;;12.40;9.30;;;24.20;89.10;;;;;;7653757;22;83313;-62
2023/09/27 00:53:45;;;;;;;11.18;9.50;;;24.20;88.40;;;;;;7653609;22;81690;-61
2023/09/27 00:56:47;;;;;;;12.02;9.57;;;24.20;88.70;;;;;;7680295;22;81595;-60
2023/09/27 00:59:48;;;;;;;11.05;9.50;;;24.20;89.20;;;;;;7680427;22;80365;-61
2023/09/27 01:02:48;;;;;;;11.52;9.02;;;24.20;89.20;;;;;;7652482;22;81426;-62
2023/09/27 01:05:49;;;;;;;10.80;9.32;;;24.10;89.50;;;;;;7653569;22;82043;-62
2023/09/27 01:08:49;;;;;;;9.52;7.93;;;24.20;89.20;;;;;;7675852;22;80874;-62
2023/09/27 01:11:50;;;;;;;9.68;8.15;;;24.20;89.00;;;;;;7680193;22;81753;-62
2023/09/27 01:14:51;;;;;;;10.65;9.15;;;24.20;89.00;;;;;;7680419;22;80831;-62
2023/09/27 01:17:52;;;;;;;9.63;7.93;;;24.20;89.30;;;;;;7680596;22;80604;-62
2023/09/27 01:20:53;;;;;;;11.40;7.85;;;24.20;88.70;;;;;;7680034;22;80269;-62
2023/09/27 01:23:53;;;;;;;11.88;7.95;;;24.20;88.40;;;;;;7680205;22;80610;-62
2023/09/27 01:26:54;;;;;;;10.40;7.95;;;24.10;87.80;;;;;;7679312;22;80455;-59
2023/09/27 01:29:54;;;;;;;8.68;7.70;;;24.10;88.20;;;;;;7653772;22;81741;-61
2023/09/27 01:32:55;;;;;;;8.60;7.70;;;24.10;88.20;;;;;;7680357;22;80262;-58
2023/09/27 01:35:57;;;;;;;8.15;7.35;;;24.10;87.70;;;;;;7679994;22;80645;-57
2023/09/27 01:38:58;;;;;;;8.10;7.07;;;24.10;87.80;;;;;;7679412;22;80425;-58
2023/09/27 01:41:58;;;;;;;8.73;7.63;;;24.10;87.50;;;;;;7651862;22;82015;-57
2023/09/27 01:44:59;;;;;;;7.47;6.72;;;24.10;87.70;;;;;;7679424;22;80454;-57
2023/09/27 01:47:59;;;;;;;8.57;7.22;;;24.10;87.00;;;;;;7653018;22;85623;-60
2023/09/27 01:50:59;;;;;;;8.23;6.53;;;24.10;87.20;;;;;;7679700;22;80548;-60
2023/09/27 01:54:02;;;;;;;7.57;6.60;;;24.10;86.90;;;;;;7679496;22;80622;-60
2023/09/27 01:57:02;;;;;;;8.43;7.22;;;24.10;86.80;;;;;;7652533;22;81379;-60
2023/09/27 02:00:08;;;;;;;8.50;6.97;;;24.10;86.90;;;;;;7652095;22;82051;-60
2023/09/27 02:03:12;;;;;;;8.80;7.60;;;24.10;86.70;;;;;;7679891;22;80326;-60
2023/09/27 02:06:13;;;;;;;7.78;7.00;;;24.10;86.50;;;;;;7652888;22;83695;-60
2023/09/27 02:09:14;;;;;;;8.00;6.70;;;24.10;86.10;;;;;;7652633;22;83585;-58
2023/09/27 02:12:14;;;;;;;7.57;6.15;;;24.10;86.20;;;;;;7679428;22;80787;-58
2023/09/27 02:15:15;;;;;;;7.22;6.03;;;24.10;85.60;;;;;;7679359;22;80905;-58
2023/09/27 02:18:15;;;;;;;12.30;6.95;;;24.10;85.70;;;;;;7651969;22;83227;-58
2023/09/27 02:21:16;;;;;;;7.53;6.78;;;24.10;85.80;;;;;;7678839;22;81479;-58
2023/09/27 02:24:17;;;;;;;7.18;6.28;;;24.10;85.30;;;;;;7680093;22;80146;-59
2023/09/27 02:27:19;;;;;;;7.45;6.45;;;24.10;85.30;;;;;;7652307;22;81506;-54
2023/09/27 02:30:20;;;;;;;7.28;6.13;;;24.00;85.40;;;;;;7679699;22;80433;-54
2023/09/27 02:33:20;;;;;;;7.20;6.43;;;24.00;84.60;;;;;;7679293;22;81273;-55
2023/09/27 02:36:21;;;;;;;7.10;6.20;;;24.10;85.20;;;;;;7679584;22;80716;-55
2023/09/27 02:39:21;;;;;;;8.27;6.30;;;24.10;84.80;;;;;;7679069;22;81337;-53
2023/09/27 02:42:22;;;;;;;8.45;6.07;;;24.10;84.60;;;;;;7678634;22;80659;-53
2023/09/27 02:45:22;;;;;;;8.85;6.68;;;24.10;84.80;;;;;;7678154;22;80692;-56
2023/09/27 02:48:23;;;;;;;9.50;6.03;;;24.10;85.00;;;;;;7679381;22;80421;-57
2023/09/27 02:51:24;;;;;;;7.22;6.05;;;24.00;84.50;;;;;;7679067;22;80356;-57
2023/09/27 02:54:24;;;;;;;6.78;5.78;;;24.10;84.60;;;;;;7679510;22;80280;-56
2023/09/27 02:57:25;;;;;;;9.30;5.80;;;24.10;84.40;;;;;;7678346;22;80763;-57
2023/09/27 03:00:26;;;;;;;6.78;6.13;;;24.00;84.70;;;;;;7624427;22;82808;-62
2023/09/27 03:03:27;;;;;;;8.75;6.35;;;24.00;83.50;;;;;;7672492;22;80583;-59
2023/09/27 03:06:29;;;;;;;7.28;6.00;;;24.00;83.90;;;;;;7650435;22;81538;-59
2023/09/27 03:09:30;;;;;;;5.90;5.30;;;24.00;83.60;;;;;;7678784;22;80253;-60
2023/09/27 03:12:30;;;;;;;6.45;5.82;;;24.00;83.10;;;;;;7650561;22;81814;-58
2023/09/27 03:15:31;;;;;;;5.78;5.18;;;24.00;82.70;;;;;;7676817;22;80384;-60
2023/09/27 03:18:31;;;;;;;10.23;5.68;;;24.00;82.90;;;;;;7675440;22;80755;-55
2023/09/27 03:21:32;;;;;;;9.80;6.65;;;24.00;83.00;;;;;;7668757;22;82708;-60
2023/09/27 03:24:34;;;;;;;7.00;5.70;;;24.00;82.40;;;;;;7679288;22;80743;-60
2023/09/27 03:27:34;;;;;;;8.65;5.80;;;24.00;83.30;;;;;;7676666;22;83707;-61
2023/09/27 03:30:35;;;;;;;7.45;6.30;;;24.00;82.50;;;;;;7672776;22;83731;-60
2023/09/27 03:33:36;;;;;;;7.38;6.43;;;24.00;82.50;;;;;;7652010;22;83084;-60
2023/09/27 03:36:37;;;;;;;8.30;6.07;;;24.00;82.50;;;;;;7679911;22;80733;-60
2023/09/27 03:39:38;;;;;;;9.48;6.68;;;24.00;82.30;;;;;;7676253;22;80493;-57
2023/09/27 03:42:38;;;;;;;8.15;6.32;;;24.00;82.10;;;;;;7676670;22;82000;-58
2023/09/27 03:45:39;;;;;;;10.05;6.13;;;24.00;82.10;;;;;;7679134;22;80282;-57
2023/09/27 03:48:42;;;;;;;8.82;6.43;;;23.90;82.10;;;;;;7675158;22;83240;-58
2023/09/27 03:51:43;;;;;;;7.53;6.07;;;23.90;81.60;;;;;;7675542;22;83461;-56
2023/09/27 03:54:44;;;;;;;11.07;6.95;;;23.90;81.70;;;;;;7677135;22;84564;-53
2023/09/27 03:57:44;;;;;;;8.38;6.32;;;23.90;81.80;;;;;;7677078;22;82219;-58
2023/09/27 04:00:45;;;;;;;8.52;6.95;;;23.90;81.40;;;;;;7671934;22;83158;-55
2023/09/27 04:03:46;;;;;;;11.38;6.95;;;23.90;81.40;;;;;;7673772;22;81261;-57
2023/09/27 04:06:49;;;;;;;10.73;6.20;;;23.90;81.30;;;;;;7675928;22;82738;-55
2023/09/27 04:09:49;;;;;;;8.82;6.50;;;23.90;81.30;;;;;;7677224;22;80529;-57
2023/09/27 04:12:50;;;;;;;33.75;6.32;;;23.90;81.10;;;;;;7678689;22;80586;-58
2023/09/27 04:15:50;;;;;;;16.15;5.88;;;23.90;81.80;;;;;;7679719;22;81141;-56
2023/09/27 04:18:51;;;;;;;9.32;5.95;;;24.00;82.40;;;;;;7673935;22;80244;-57
2023/09/27 04:21:51;;;;;;;9.98;6.25;;;24.00;82.00;;;;;;7675082;22;80210;-57
2023/09/27 04:24:52;;;;;;;7.53;6.40;;;24.00;81.50;;;;;;7680817;22;81246;-55
2023/09/27 04:27:53;;;;;;;7.60;6.32;;;24.00;81.50;;;;;;7661100;22;80805;-57
2023/09/27 04:30:53;;;;;;;7.60;6.53;;;24.10;83.10;;;;;;7634393;22;80487;-56
2023/09/27 04:33:54;;;;;;;10.30;6.28;;;24.10;81.70;;;;;;7680913;22;80729;-63
2023/09/27 04:36:55;;;;;;;10.88;6.05;;;24.10;82.20;;;;;;7677923;22;86839;-61
2023/09/27 04:39:55;;;;;;;8.57;6.35;;;24.10;81.60;;;;;;7680537;22;80645;-67
2023/09/27 04:42:56;;;;;;;8.55;5.65;;;24.10;81.80;;;;;;7679026;22;80863;-62
2023/09/27 04:45:56;;;;;;;14.18;5.88;;;24.20;82.40;;;;;;7678697;22;80292;-63
2023/09/27 04:48:57;;;;;;;8.50;6.05;;;24.30;82.00;;;;;;7679573;22;80503;-55
2023/09/27 04:51:57;;;;;;;10.55;6.28;;;24.30;82.20;;;;;;7651294;22;83381;-53
2023/09/27 04:54:58;;;;;;;10.15;5.65;;;24.30;81.60;;;;;;7677867;22;80478;-53
2023/09/27 04:57:58;;;;;;;12.10;6.03;;;24.30;81.30;;;;;;7679154;22;80592;-56
2023/09/27 05:00:59;;;;;;;21.05;6.35;;;24.30;81.70;;;;;;7646018;22;80741;-55
2023/09/27 05:03:59;;;;;;;11.55;6.00;;;24.30;81.10;;;;;;7674628;22;80047;-53
2023/09/27 05:07:00;;;;;;;13.07;6.22;;;24.20;80.30;;;;;;7673391;22;81109;-55
2023/09/27 05:10:01;;;;;;;12.90;7.05;;;24.20;80.20;;;;;;7678809;22;81525;-57
2023/09/27 05:13:01;;;;;;;14.40;6.18;;;24.10;79.70;;;;;;7679355;22;80580;-55
2023/09/27 05:16:01;;;;;;;15.13;6.47;;;24.10;79.50;;;;;;7677565;22;80410;-56
2023/09/27 05:19:02;;;;;;;15.20;7.00;;;24.10;80.50;;;;;;7667519;22;80650;-57
2023/09/27 05:22:03;;;;;;;9.73;6.72;;;24.10;79.90;;;;;;7615863;22;81608;-62
2023/09/27 05:25:04;;;;;;;13.57;8.05;;;24.10;80.50;;;;;;7602762;22;80541;-56
2023/09/27 05:28:04;;;;;;;14.98;7.03;;;24.00;76.30;;;;;;7626288;22;81016;-63
2023/09/27 05:31:05;;;;;;;9.95;6.63;;;24.00;78.00;;;;;;7630980;22;80237;-65
2023/09/27 05:34:06;;;;;;;10.60;6.57;;;24.00;78.20;;;;;;7636886;22;80517;-60
2023/09/27 05:37:06;;;;;;;10.73;6.80;;;24.00;78.10;;;;;;7640034;22;80487;-73
2023/09/27 05:40:09;;;;;;;11.63;7.45;;;24.00;78.00;;;;;;7568376;22;81080;-66
2023/09/27 05:43:09;;;;;;;14.18;8.77;;;24.00;78.00;;;;;;7501850;22;81922;-65
2023/09/27 05:46:10;;;;;;;11.85;7.20;;;23.90;76.50;;;;;;7491964;22;84336;-55
2023/09/27 05:49:11;;;;;;;13.77;7.45;;;23.90;76.90;;;;;;7490088;22;81721;-54
2023/09/27 05:52:13;;;;;;;17.25;7.72;;;23.90;76.40;;;;;;7489647;22;82027;-56
2023/09/27 05:55:15;;;;;;;10.52;7.45;;;23.90;75.00;;;;;;7488752;22;81542;-55
2023/09/27 05:58:16;;;;;;;12.45;8.45;;;23.90;75.10;;;;;;7476839;22;82179;-55
2023/09/27 06:01:19;;;;;;;12.85;8.30;;;23.90;74.60;;;;;;7485956;22;82218;-55
2023/09/27 06:04:20;;;;;;;13.10;7.45;;;23.90;74.30;;;;;;7464321;22;81743;-56
2023/09/27 06:07:20;;;;;;;11.45;8.00;;;23.80;74.60;;;;;;7465068;22;82809;-56
2023/09/27 06:10:22;;;;;;;9.88;6.85;;;23.90;74.90;;;;;;7463850;22;81303;-56
2023/09/27 06:13:22;;;;;;;12.25;8.13;;;23.90;74.90;;;;;;7487143;22;82118;-55
2023/09/27 06:16:24;;;;;;;14.30;7.95;;;23.90;75.20;;;;;;7488685;22;82213;-55
2023/09/27 06:19:24;;;;;;;10.88;7.60;;;23.90;75.20;;;;;;7494603;22;82050;-55
2023/09/27 06:22:27;;;;;;;12.55;8.40;;;23.90;75.40;;;;;;7529033;22;80331;-46
2023/09/27 06:25:29;;;;;;;17.30;8.75;;;23.90;75.10;;;;;;7527456;22;81950;-60
2023/09/27 06:28:30;;;;;;;18.33;9.77;;;23.90;75.30;;;;;;7528873;22;80264;-59
2023/09/27 06:31:31;;;;;;;12.95;8.38;;;23.90;73.90;;;;;;7528039;22;82017;-59
2023/09/27 06:34:31;;;;;;;12.73;8.13;;;23.90;75.20;;;;;;7537408;22;82148;-59
2023/09/27 06:37:32;;;;;;;13.35;7.90;;;23.80;76.00;;;;;;7677895;22;80290;-60
2023/09/27 06:40:32;;;;;;;11.27;7.60;;;23.90;76.80;;;;;;7679062;22;80556;-63
2023/09/27 06:43:33;;;;;;;9.57;7.28;;;23.90;77.60;;;;;;7679843;22;80211;-64
2023/09/27 06:46:33;;;;;;;8.10;6.78;;;23.90;77.90;;;;;;7680123;22;81893;-65
2023/09/27 06:49:34;;;;;;;12.10;7.60;;;23.90;78.50;;;;;;7680879;22;80431;-64
2023/09/27 06:52:37;;;;;;;11.57;7.57;;;24.00;79.20;;;;;;7680934;22;80383;-64
2023/09/27 06:55:38;;;;;;;13.63;8.10;;;23.90;79.70;;;;;;7680940;22;80728;-64
2023/09/27 06:58:40;;;;;;;21.02;8.65;;;23.90;80.50;;;;;;7650332;22;81027;-61
2023/09/27 07:01:41;;;;;;;14.52;8.20;;;23.90;81.00;;;;;;7634046;22;80989;-64
2023/09/27 07:04:42;;;;;;;10.85;8.02;;;23.90;80.90;;;;;;7631320;22;80854;-65
2023/09/27 07:07:43;;;;;;;14.00;8.75;;;23.90;80.70;;;;;;7651651;22;82477;-66
2023/09/27 07:10:44;;;;;;;11.48;8.20;;;23.80;80.60;;;;;;7654357;22;80654;-65
2023/09/27 07:13:44;;;;;;;12.00;8.02;;;23.80;79.50;;;;;;7661847;22;81158;-65
2023/09/27 07:16:46;;;;;;;10.07;7.88;;;23.80;79.20;;;;;;7666808;22;81024;-61
2023/09/27 07:19:46;;;;;;;11.95;8.38;;;23.80;78.70;;;;;;7644586;22;83283;-59
2023/09/27 07:22:47;;;;;;;10.60;8.07;;;23.90;78.80;;;;;;7678366;22;80300;-59
2023/09/27 07:25:48;;;;;;;13.07;7.70;;;23.90;79.00;;;;;;7677969;22;80507;-58
2023/09/27 07:28:50;;;;;;;9.32;7.38;;;23.90;79.50;;;;;;7677734;22;80143;-58
2023/09/27 07:31:50;;;;;;;11.55;8.05;;;23.90;79.40;;;;;;7651431;22;83436;-59
2023/09/27 07:34:52;;;;;;;11.85;8.38;;;23.90;79.40;;;;;;7679003;22;81042;-65
2023/09/27 07:37:54;;;;;;;12.70;8.32;;;23.90;79.20;;;;;;7678369;22;81856;-56
2023/09/27 07:40:54;;;;;;;12.27;8.23;;;24.00;79.60;;;;;;7679510;22;80376;-56
2023/09/27 07:43:55;;;;;;;11.43;7.85;;;24.00;79.90;;;;;;7649573;22;82292;-56
2023/09/27 07:46:56;;;;;;;10.50;8.50;;;24.00;79.60;;;;;;7679214;22;80436;-56
2023/09/27 07:49:57;;;;;;;13.93;7.78;;;24.00;79.30;;;;;;7679313;22;80471;-56
2023/09/27 07:52:57;;;;;;;14.40;7.93;;;24.00;79.20;;;;;;7679554;22;80682;-60
2023/09/27 07:55:58;;;;;;;8.68;7.75;;;24.00;79.80;;;;;;7652911;22;80945;-60
2023/09/27 07:58:59;;;;;;;14.32;8.25;;;24.00;80.90;;;;;;7679598;22;80501;-59
2023/09/27 08:01:59;;;;;;;10.38;7.45;;;24.10;81.20;;;;;;7678738;22;80595;-60
2023/09/27 08:05:02;;;;;;;11.45;7.72;;;24.00;81.70;;;;;;7679770;22;83387;-60
2023/09/27 08:08:03;;;;;;;13.65;8.23;;;24.10;81.50;;;;;;7679240;22;80545;-60
2023/09/27 08:11:03;;;;;;;10.65;7.57;;;24.10;82.30;;;;;;7680532;22;80917;-59
2023/09/27 08:14:04;;;;;;;8.95;7.35;;;24.10;82.00;;;;;;7636428;22;83325;-66
2023/09/27 08:17:04;;;;;;;13.07;7.57;;;24.10;82.50;;;;;;7653584;22;81015;-58
2023/09/27 08:20:12;;;;;;;12.98;7.47;;;24.10;82.30;;;;;;7660385;22;81323;-58
2023/09/27 08:23:12;;;;;;;10.00;6.95;;;24.20;82.50;;;;;;7664780;22;81090;-58
2023/09/27 08:26:13;;;;;;;11.63;7.47;;;24.20;82.00;;;;;;7649034;22;80844;-57
2023/09/27 08:29:13;;;;;;;10.93;7.13;;;24.20;81.90;;;;;;7676016;22;80278;-57
2023/09/27 08:32:14;;;;;;;12.88;7.35;;;24.20;82.60;;;;;;7676693;22;80685;-55
2023/09/27 08:35:15;;;;;;;12.25;7.32;;;24.20;82.80;;;;;;7648093;22;83397;-54
2023/09/27 08:38:16;;;;;;;11.45;7.65;;;24.30;83.30;;;;;;7651633;22;80882;-55
2023/09/27 08:41:17;;;;;;;11.25;7.30;;;24.30;83.50;;;;;;7677186;22;80532;-55
2023/09/27 08:44:17;;;;;;;9.15;6.85;;;24.30;84.10;;;;;;7677964;22;80759;-54
2023/09/27 08:47:18;;;;;;;11.85;7.47;;;24.30;84.10;;;;;;7649109;22;80131;-56
2023/09/27 08:50:18;;;;;;;10.35;6.97;;;24.40;84.00;;;;;;7676625;22;81628;-55
2023/09/27 08:53:19;;;;;;;9.25;6.70;;;24.40;83.90;;;;;;7677637;22;80832;-56
2023/09/27 08:56:20;;;;;;;7.88;6.43;;;24.40;84.00;;;;;;7678497;22;81365;-57
2023/09/27 08:59:21;;;;;;;14.40;7.38;;;24.40;83.70;;;;;;7679020;22;80659;-55
2023/09/27 09:02:21;;;;;;;9.85;6.65;;;24.50;83.70;;;;;;7651218;22;82051;-53
2023/09/27 09:05:22;;;;;;;13.05;7.07;;;24.50;84.30;;;;;;7678094;22;79948;-55
2023/09/27 09:08:22;;;;;;;8.70;5.97;;;24.50;84.50;;;;;;7678214;22;80418;-57
2023/09/27 09:11:23;;;;;;;12.65;7.38;;;24.50;84.50;;;;;;7680461;22;80304;-56
2023/09/27 09:14:23;;;;;;;11.27;6.68;;;24.50;84.10;;;;;;7679939;22;80430;-55
2023/09/27 09:17:25;;;;;;;9.55;6.70;;;24.60;83.70;;;;;;7653085;22;81057;-55
2023/09/27 09:20:32;;;;;;;12.18;6.85;;;24.60;81.80;;;;;;7679158;22;80914;-56
2023/09/27 09:23:33;;;;;;;12.82;7.18;;;24.60;81.20;;;;;;7679724;22;80661;-55
2023/09/27 09:26:35;;;;;;;10.85;7.18;;;24.60;80.50;;;;;;7680192;22;80390;-57
2023/09/27 09:29:35;;;;;;;10.60;7.28;;;24.60;79.90;;;;;;7679555;22;80799;-57
2023/09/27 09:32:36;;;;;;;10.50;7.22;;;24.60;80.30;;;;;;7651396;22;80088;-56
2023/09/27 09:35:36;;;;;;;11.07;6.63;;;24.60;80.00;;;;;;7674420;22;80955;-56
2023/09/27 09:38:37;;;;;;;16.25;7.60;;;24.60;79.50;;;;;;7680278;22;80434;-57
2023/09/27 09:41:38;;;;;;;12.02;7.40;;;24.60;81.50;;;;;;7680251;22;80182;-57
2023/09/27 09:44:39;;;;;;;10.45;7.15;;;24.70;82.10;;;;;;7679828;22;80910;-58
2023/09/27 09:47:39;;;;;;;10.20;6.45;;;24.70;82.00;;;;;;7679832;22;80696;-55
2023/09/27 09:50:40;;;;;;;9.73;6.63;;;24.70;80.20;;;;;;7680386;22;80460;-55
2023/09/27 09:53:40;;;;;;;12.48;7.35;;;24.70;80.00;;;;;;7679222;22;81097;-58
2023/09/27 09:56:42;;;;;;;13.68;7.28;;;24.70;81.00;;;;;;7678833;22;80871;-56
2023/09/27 09:59:43;;;;;;;11.55;7.45;;;24.80;80.30;;;;;;7679175;22;80284;-56
2023/09/27 10:02:43;;;;;;;11.88;7.07;;;24.80;80.10;;;;;;7680061;22;80357;-57
2023/09/27 10:05:44;;;;;;;10.63;6.97;;;24.80;79.90;;;;;;7678735;22;80974;-57
2023/09/27 10:08:44;;;;;;;19.00;7.95;;;24.90;80.50;;;;;;7678768;22;82526;-56
2023/09/27 10:11:45;;;;;;;11.02;7.32;;;24.90;80.20;;;;;;7653443;22;82289;-56
2023/09/27 10:14:45;;;;;;;12.90;7.50;;;24.90;80.10;;;;;;7679718;22;80520;-57
2023/09/27 10:17:46;;;;;;;16.55;7.75;;;24.90;79.80;;;;;;7677763;22;80457;-57
2023/09/27 10:20:46;;;;;;;14.25;7.90;;;25.00;79.70;;;;;;7661925;22;82182;-56
2023/09/27 10:23:52;;;;;;;12.70;7.07;;;25.00;79.30;;;;;;7680110;22;80739;-57
2023/09/27 10:26:53;;;;;;;11.83;6.37;;;25.00;79.20;;;;;;7677905;22;80329;-57
2023/09/27 10:29:54;;;;;;;10.88;6.70;;;25.00;79.40;;;;;;7678303;22;80124;-57
2023/09/27 10:32:54;;;;;;;11.20;7.10;;;25.00;78.80;;;;;;7677853;22;81416;-57
2023/09/27 10:35:55;;;;;;;12.82;7.18;;;25.10;78.80;;;;;;7677840;22;80623;-58
2023/09/27 10:38:55;;;;;;;8.82;6.50;;;25.10;78.60;;;;;;7678817;22;80936;-62
2023/09/27 10:41:56;;;;;;;9.75;6.43;;;25.10;77.40;;;;;;7681329;22;81235;-63
2023/09/27 10:45:00;;;;;;;9.77;6.05;;;25.10;77.30;;;;;;7679685;22;80487;-62
2023/09/27 10:48:00;;;;;;;11.38;6.03;;;25.20;77.60;;;;;;7679714;22;80912;-62
2023/09/27 10:51:01;;;;;;;10.73;6.10;;;25.10;77.40;;;;;;7671893;22;80888;-63
2023/09/27 10:54:02;;;;;;;14.88;6.28;;;25.20;75.80;;;;;;7666672;22;80837;-60
2023/09/27 10:57:02;;;;;;;11.73;6.10;;;25.20;75.00;;;;;;7677481;22;80732;-52
2023/09/27 11:00:09;;;;;;;10.60;6.15;;;25.10;72.30;;;;;;7670015;22;81365;-55
2023/09/27 11:03:09;;;;;;;12.90;6.22;;;25.10;72.30;;;;;;7675195;22;80042;-54
2023/09/27 11:06:13;;;;;;;9.18;6.03;;;25.00;70.50;;;;;;7677251;22;81606;-54
2023/09/27 11:09:16;;;;;;;14.00;6.28;;;25.10;71.60;;;;;;7674480;22;80375;-54
2023/09/27 11:12:17;;;;;;;9.07;5.82;;;25.10;73.40;;;;;;7676311;22;81429;-54
2023/09/27 11:15:17;;;;;;;16.98;5.60;;;25.10;75.60;;;;;;7679326;22;80162;-53
2023/09/27 11:18:18;;;;;;;12.20;6.35;;;25.20;76.70;;;;;;7679248;22;80453;-54
2023/09/27 11:21:23;;;;;;;12.60;5.60;;;25.30;75.70;;;;;;7673903;22;80989;-54
2023/09/27 11:24:24;;;;;;;16.85;5.68;;;25.30;77.60;;;;;;7678052;22;80505;-54
2023/09/27 11:27:25;;;;;;;18.48;6.00;;;25.30;77.90;;;;;;7677070;22;80852;-54
2023/09/27 11:30:26;;;;;;;14.50;5.40;;;25.40;73.10;;;;;;7650678;22;83850;-51
2023/09/27 11:33:26;;;;;;;15.00;6.97;;;25.30;73.60;;;;;;7678958;22;80552;-52
2023/09/27 11:36:27;;;;;;;13.70;5.65;;;25.40;75.70;;;;;;7677532;22;80806;-53
2023/09/27 11:39:27;;;;;;;9.65;5.88;;;25.40;71.90;;;;;;7676211;22;80797;-53
2023/09/27 11:42:28;;;;;;;10.55;5.63;;;25.40;71.90;;;;;;7679371;22;80721;-52
2023/09/27 11:45:28;;;;;;;12.23;6.03;;;25.40;71.00;;;;;;7677634;22;80884;-52
2023/09/27 11:48:29;;;;;;;12.18;5.65;;;25.50;77.10;;;;;;7675828;22;81483;-53
2023/09/27 11:51:29;;;;;;;12.48;6.15;;;25.50;74.30;;;;;;7672419;22;80862;-64
2023/09/27 11:54:30;;;;;;;15.45;6.88;;;25.60;72.00;;;;;;7647608;22;82396;-54
2023/09/27 11:57:30;;;;;;;14.68;6.68;;;25.50;71.90;;;;;;7650454;22;81162;-53
2023/09/27 12:00:32;;;;;;;12.52;6.05;;;25.50;70.30;;;;;;7674094;22;80836;-53
2023/09/27 12:03:32;;;;;;;11.18;6.20;;;25.50;72.80;;;;;;7676453;22;80248;-53
2023/09/27 12:06:33;;;;;;;10.68;6.00;;;25.60;71.00;;;;;;7649402;22;81656;-53
2023/09/27 12:09:33;;;;;;;11.57;6.28;;;25.50;69.50;;;;;;7678508;22;80432;-54
2023/09/27 12:12:34;;;;;;;7.20;5.15;;;25.50;67.90;;;;;;7678726;22;80314;-62
2023/09/27 12:15:34;;;;;;;13.30;5.25;;;25.50;67.10;;;;;;7679192;22;80478;-63
2023/09/27 12:18:35;;;;;;;13.07;6.18;;;25.50;70.20;;;;;;7679438;22;80568;-63
2023/09/27 12:21:35;;;;;;;10.77;5.80;;;25.50;68.50;;;;;;7676817;22;80639;-65
2023/09/27 12:24:36;;;;;;;9.10;5.93;;;25.50;67.20;;;;;;7676916;22;81784;-64
2023/09/27 12:27:36;;;;;;;13.13;6.05;;;25.50;66.80;;;;;;7650428;22;80133;-63
2023/09/27 12:30:37;;;;;;;9.40;5.70;;;25.50;67.50;;;;;;7675960;22;80591;-56
2023/09/27 12:33:37;;;;;;;10.63;5.60;;;25.50;67.00;;;;;;7650830;22;82574;-53
2023/09/27 12:36:38;;;;;;;8.52;5.05;;;25.50;67.90;;;;;;7676831;22;80890;-54
2023/09/27 12:39:39;;;;;;;15.23;6.28;;;25.40;65.70;;;;;;7674957;22;80753;-53
2023/09/27 12:42:39;;;;;;;9.98;5.63;;;25.50;67.10;;;;;;7676857;22;80315;-55
2023/09/27 12:45:40;;;;;;;10.50;5.70;;;25.50;66.20;;;;;;7651160;22;81266;-50
2023/09/27 12:48:41;;;;;;;10.80;5.20;;;25.40;65.00;;;;;;7680214;22;80725;-52
2023/09/27 12:51:41;;;;;;;14.48;6.68;;;25.50;66.40;;;;;;7675887;22;80360;-55
2023/09/27 12:54:42;;;;;;;12.23;5.70;;;25.50;66.80;;;;;;7678995;22;80022;-54
2023/09/27 12:57:42;;;;;;;10.02;5.68;;;25.50;66.40;;;;;;7678385;22;80825;-54
2023/09/27 13:00:43;;;;;;;9.90;6.07;;;25.40;65.20;;;;;;7679093;22;80837;-56
2023/09/27 13:03:43;;;;;;;7.43;5.40;;;25.40;64.50;;;;;;7679065;22;80140;-53
2023/09/27 13:06:44;;;;;;;9.48;5.30;;;25.30;63.50;;;;;;7679128;22;80327;-50
2023/09/27 13:09:45;;;;;;;7.00;5.28;;;25.30;64.40;;;;;;7677463;22;80956;-53
2023/09/27 13:12:45;;;;;;;13.73;5.97;;;25.40;64.00;;;;;;7678640;22;81373;-50
2023/09/27 13:15:46;;;;;;;8.27;5.40;;;25.30;64.40;;;;;;7679564;22;80577;-49
2023/09/27 13:18:47;;;;;;;15.45;6.10;;;25.30;64.00;;;;;;7678851;22;80160;-48
2023/09/27 13:21:48;;;;;;;14.10;5.40;;;25.30;63.20;;;;;;7675335;22;80659;-51
2023/09/27 13:24:48;;;;;;;13.65;4.90;;;25.30;63.80;;;;;;7676137;22;80552;-53
2023/09/27 13:27:49;;;;;;;7.43;4.75;;;25.30;62.60;;;;;;7676332;22;80829;-54
2023/09/27 13:30:50;;;;;;;9.65;5.10;;;25.30;62.90;;;;;;7676629;22;80599;-55
2023/09/27 13:33:51;;;;;;;7.88;5.10;;;25.30;61.70;;;;;;7677162;22;80883;-54
2023/09/27 13:36:51;;;;;;;14.88;6.20;;;25.30;62.30;;;;;;7675667;22;80554;-53
2023/09/27 13:39:52;;;;;;;12.10;5.68;;;25.30;62.50;;;;;;7675425;22;80361;-52
2023/09/27 13:42:52;;;;;;;8.40;5.50;;;25.30;63.00;;;;;;7674951;22;80963;-54
2023/09/27 13:45:53;;;;;;;12.52;5.55;;;25.30;62.00;;;;;;7674746;22;80400;-51
2023/09/27 13:48:53;;;;;;;15.85;6.20;;;25.30;63.50;;;;;;7676885;22;80291;-51
2023/09/27 13:51:54;;;;;;;8.98;5.45;;;25.30;62.80;;;;;;7679118;22;80474;-51
2023/09/27 13:54:54;;;;;;;10.40;5.60;;;25.30;63.30;;;;;;7679655;22;83445;-50
2023/09/27 13:57:56;;;;;;;15.00;6.00;;;25.30;63.80;;;;;;7653007;22;81674;-51
2023/09/27 14:00:56;;;;;;;16.15;5.82;;;25.30;64.10;;;;;;7649303;22;80335;-62
2023/09/27 14:03:58;;;;;;;10.23;5.60;;;25.30;63.70;;;;;;7677126;22;80252;-53
2023/09/27 14:07:00;;;;;;;15.43;6.15;;;25.30;65.20;;;;;;7675845;22;80602;-54
2023/09/27 14:10:01;;;;;;;10.48;6.22;;;25.30;64.60;;;;;;7674660;22;81025;-54
2023/09/27 14:13:02;;;;;;;12.60;5.22;;;25.30;64.00;;;;;;7672354;22;80425;-54
2023/09/27 14:16:02;;;;;;;9.48;5.38;;;25.30;64.70;;;;;;7675178;22;80989;-55
2023/09/27 14:19:04;;;;;;;11.07;5.47;;;25.30;63.50;;;;;;7675154;22;80356;-54
2023/09/27 14:22:05;;;;;;;15.68;5.63;;;25.30;62.70;;;;;;7675224;22;80787;-63
2023/09/27 14:25:08;;;;;;;17.42;5.13;;;25.30;63.30;;;;;;7677309;22;80524;-62
2023/09/27 14:28:08;;;;;;;15.15;5.45;;;25.30;62.50;;;;;;7679748;22;80358;-62
2023/09/27 14:31:09;;;;;;;13.68;5.40;;;25.30;62.70;;;;;;7652589;22;80770;-63
2023/09/27 14:34:09;;;;;;;11.95;5.53;;;25.20;62.70;;;;;;7680270;22;81196;-63
2023/09/27 14:37:10;;;;;;;9.02;5.63;;;25.20;62.50;;;;;;7680273;22;80137;-61
2023/09/27 14:40:11;;;;;;;10.40;5.03;;;25.30;63.20;;;;;;7653453;22;81759;-62
2023/09/27 14:43:11;;;;;;;10.63;5.50;;;25.20;62.80;;;;;;7680933;22;82234;-63
2023/09/27 14:46:12;;;;;;;11.27;5.95;;;25.20;62.60;;;;;;7679828;22;80882;-61
2023/09/27 14:49:15;;;;;;;11.18;5.35;;;25.20;63.10;;;;;;7680034;22;80422;-62
2023/09/27 14:52:15;;;;;;;10.77;4.97;;;25.20;62.90;;;;;;7680381;22;81091;-63
2023/09/27 14:55:17;;;;;;;11.73;5.57;;;25.20;63.10;;;;;;7680802;22;80382;-61
2023/09/27 14:58:18;;;;;;;12.93;5.70;;;25.20;62.80;;;;;;7679527;22;80291;-54
2023/09/27 15:01:18;;;;;;;14.93;6.85;;;25.20;62.60;;;;;;7678847;22;80091;-50
2023/09/27 15:04:19;;;;;;;16.17;6.18;;;25.10;62.40;;;;;;7678802;22;80556;-46
2023/09/27 15:07:20;;;;;;;19.83;6.20;;;25.20;62.70;;;;;;7678097;22;80437;-49
2023/09/27 15:10:20;;;;;;;13.82;6.03;;;25.20;63.00;;;;;;7677934;22;81006;-53
2023/09/27 15:13:21;;;;;;;11.43;6.47;;;25.10;63.10;;;;;;7650164;22;81515;-51
2023/09/27 15:16:21;;;;;;;13.75;5.78;;;25.10;63.50;;;;;;7677028;22;80778;-53
2023/09/27 15:19:22;;;;;;;23.15;6.70;;;25.10;63.80;;;;;;7679692;22;80277;-55
2023/09/27 15:22:23;;;;;;;14.75;6.20;;;25.20;64.50;;;;;;7677365;22;80774;-54
2023/09/27 15:25:23;;;;;;;13.93;6.25;;;25.10;64.20;;;;;;7676078;22;80861;-54
2023/09/27 15:28:24;;;;;;;11.45;5.88;;;25.10;64.60;;;;;;7651419;22;80397;-54
2023/09/27 15:31:24;;;;;;;12.77;6.60;;;25.20;64.60;;;;;;7677613;22;80305;-54
2023/09/27 15:34:25;;;;;;;11.25;5.90;;;25.10;64.60;;;;;;7677521;22;80325;-51